Decoded Metar for PFCL ( in ) (IATA:) | Meteo·Mobile Aviation Weather
aviador You're here:

PFCL Decoded Metar

in
Report Time2019-10-22 13:56:00
UTC Time2019-10-22 14:33:06
Flight Rules vfr VFR
Wind100° at 06 kt
W.Decomp.*RWY 18: 1.0 kt HW 5.9 kt LCW
Visibility9999 m
Phenomena:N/A
Clouds:Overcast 050 Hf
Ceiling5,000 ft
Temp01°C
Dew Point01°C (100% RH)
AAT-3.0°C
QNH1006 hPa
Raw Report
PFCL 221356Z AUTO 10006KT 10SM OVC050 01/01 A2971 RMK AO2 SLP055
T00060006 FZRANO TSNO=

Extra information for PFCL:More info

Social comments